createdAt,value
2018-05-11T00:01:56.470Z,20.70
2018-05-11T00:04:24.835Z,19.87
2018-05-11T00:06:52.486Z,21.50
2018-05-11T00:09:20.148Z,22.08
2018-05-11T00:11:47.737Z,15.43
2018-05-11T00:14:15.369Z,20.35
2018-05-11T00:16:42.967Z,18.17
2018-05-11T00:19:10.557Z,16.65
2018-05-11T00:21:38.152Z,18.08
2018-05-11T00:24:05.750Z,18.25
2018-05-11T00:26:33.409Z,18.12
2018-05-11T00:29:01.030Z,23.73
2018-05-11T00:31:28.620Z,18.90
2018-05-11T00:33:56.402Z,15.82
2018-05-11T00:36:24.020Z,18.20
2018-05-11T00:38:51.612Z,18.87
2018-05-11T00:41:19.196Z,17.10
2018-05-11T00:43:46.780Z,24.52
2018-05-11T00:46:15.165Z,23.83
2018-05-11T00:48:42.801Z,22.77
2018-05-11T00:51:10.529Z,16.30
2018-05-11T00:53:38.155Z,20.08
2018-05-11T00:56:05.733Z,23.92
2018-05-11T00:58:33.321Z,28.77
2018-05-11T01:01:00.940Z,21.50
2018-05-11T01:03:28.577Z,28.27
2018-05-11T01:05:56.169Z,23.02
2018-05-11T01:08:23.806Z,20.83
2018-05-11T01:10:51.421Z,25.00
2018-05-11T01:13:19.771Z,24.45
2018-05-11T01:15:48.108Z,23.48
2018-05-11T01:18:15.710Z,25.50
2018-05-11T01:20:44.092Z,25.12
2018-05-11T01:23:12.467Z,24.73
2018-05-11T01:25:40.082Z,24.55
2018-05-11T01:28:07.673Z,24.05
2018-05-11T01:30:35.324Z,27.50
2018-05-11T01:33:02.924Z,23.62
2018-05-11T01:35:31.265Z,21.62
2018-05-11T01:37:58.902Z,25.80
2018-05-11T01:40:26.508Z,20.90
2018-05-11T01:42:54.130Z,25.75
2018-05-11T01:45:21.750Z,21.05
2018-05-11T01:47:50.123Z,25.52
2018-05-11T01:50:18.453Z,24.55
2018-05-11T01:52:46.083Z,20.75
2018-05-11T01:55:13.647Z,25.27
2018-05-11T01:57:41.265Z,22.15
2018-05-11T02:00:08.843Z,23.00
2018-05-11T02:02:36.452Z,23.58
2018-05-11T02:05:04.083Z,28.40
2018-05-11T02:07:31.709Z,25.92
2018-05-11T02:09:59.364Z,26.90
2018-05-11T02:12:26.939Z,25.12
2018-05-11T02:14:54.524Z,21.23
2018-05-11T02:17:22.099Z,21.67
2018-05-11T02:19:49.696Z,20.33
2018-05-11T02:22:17.299Z,30.15
2018-05-11T02:24:45.702Z,28.15
2018-05-11T02:27:13.329Z,21.73
2018-05-11T02:29:40.972Z,24.05
2018-05-11T02:32:08.713Z,25.10
2018-05-11T02:34:36.323Z,23.80
2018-05-11T02:37:03.956Z,25.92
2018-05-11T02:39:31.522Z,27.67
2018-05-11T02:41:59.126Z,21.02
2018-05-11T02:44:26.711Z,23.00
2018-05-11T02:46:54.351Z,22.25
2018-05-11T02:49:21.976Z,23.87
2018-05-11T02:51:51.270Z,21.83
2018-05-11T02:54:18.877Z,23.10
2018-05-11T02:56:46.485Z,27.45
2018-05-11T02:59:14.081Z,22.70
2018-05-11T03:01:41.642Z,21.30
2018-05-11T03:04:09.218Z,21.62
2018-05-11T03:06:37.116Z,22.45
2018-05-11T03:09:04.792Z,27.55
2018-05-11T03:11:32.380Z,33.55
2018-05-11T03:14:00.747Z,21.95
2018-05-11T03:16:28.323Z,24.30
2018-05-11T03:18:55.922Z,23.58
2018-05-11T03:21:23.513Z,30.10
2018-05-11T03:23:51.139Z,23.98
2018-05-11T03:26:18.697Z,29.60
2018-05-11T03:28:46.320Z,30.33
2018-05-11T03:31:14.699Z,29.10
2018-05-11T03:33:43.060Z,24.33
2018-05-11T03:36:10.673Z,28.90
2018-05-11T03:38:38.313Z,25.05
2018-05-11T03:41:06.655Z,35.95
2018-05-11T03:43:34.282Z,27.92
2018-05-11T03:46:02.651Z,25.58
2018-05-11T03:48:30.227Z,21.42
2018-05-11T03:50:57.808Z,23.25
2018-05-11T03:53:25.426Z,32.13
2018-05-11T03:55:53.123Z,24.35
2018-05-11T03:58:21.360Z,26.02
2018-05-11T04:00:49.015Z,21.95
2018-05-11T04:03:28.518Z,20.00
2018-05-11T04:06:04.584Z,29.15
2018-05-11T04:08:41.937Z,23.52
2018-05-11T04:11:09.526Z,27.45
2018-05-11T04:13:37.119Z,23.17
2018-05-11T04:16:04.733Z,22.48
2018-05-11T04:18:32.316Z,28.00
2018-05-11T04:20:59.918Z,24.87
2018-05-11T04:23:27.477Z,25.55
2018-05-11T04:25:55.101Z,24.90
2018-05-11T04:28:22.708Z,27.35
2018-05-11T04:30:50.322Z,20.42
2018-05-11T04:33:17.904Z,17.05
2018-05-11T04:35:45.509Z,23.87
2018-05-11T04:38:13.063Z,20.58
2018-05-11T04:40:40.668Z,26.95
2018-05-11T04:43:08.987Z,19.80
2018-05-11T04:45:36.590Z,26.45
2018-05-11T04:48:04.160Z,33.78
2018-05-11T04:50:31.791Z,34.53
2018-05-11T04:52:59.369Z,22.17
2018-05-11T04:55:27.014Z,25.02
2018-05-11T04:57:54.607Z,26.08
2018-05-11T05:00:23.012Z,31.48
2018-05-11T05:02:50.590Z,25.55
2018-05-11T05:05:18.177Z,23.65
2018-05-11T05:07:45.786Z,21.17
2018-05-11T05:10:13.380Z,21.48
2018-05-11T05:12:40.977Z,30.60
2018-05-11T05:15:08.571Z,24.30
2018-05-11T05:17:36.154Z,26.27
2018-05-11T05:20:03.718Z,19.37
2018-05-11T05:22:31.351Z,23.87
2018-05-11T05:24:59.718Z,23.80
2018-05-11T05:27:28.114Z,34.58
2018-05-11T05:29:55.697Z,27.58
2018-05-11T05:32:23.309Z,60.20
2018-05-11T05:34:50.910Z,56.83
2018-05-11T05:37:18.608Z,26.00
2018-05-11T05:39:46.194Z,48.40
2018-05-11T05:42:14.574Z,31.90
2018-05-11T05:44:43.882Z,29.08
2018-05-11T05:47:11.536Z,29.90
2018-05-11T05:49:39.889Z,25.05
2018-05-11T05:52:07.575Z,30.12
2018-05-11T05:54:35.876Z,48.17
2018-05-11T05:57:04.298Z,46.75
2018-05-11T05:59:31.890Z,37.53
2018-05-11T06:02:00.301Z,40.78
2018-05-11T06:04:27.908Z,35.30
2018-05-11T06:06:55.558Z,55.83
2018-05-11T06:09:23.219Z,32.10
2018-05-11T06:11:51.006Z,49.40
2018-05-11T06:14:18.631Z,37.22
2018-05-11T06:16:46.238Z,32.53
2018-05-11T06:19:13.930Z,36.03
2018-05-11T06:21:41.526Z,32.45
2018-05-11T06:24:09.152Z,30.83
2018-05-11T06:26:36.758Z,28.00
2018-05-11T06:29:04.371Z,34.78
2018-05-11T06:31:32.731Z,40.70
2018-05-11T06:34:00.345Z,43.00
2018-05-11T06:36:27.950Z,34.30
2018-05-11T06:38:55.570Z,40.90
2018-05-11T06:41:23.164Z,33.38
2018-05-11T06:43:50.783Z,42.20
2018-05-11T06:46:18.382Z,29.37
2018-05-11T06:48:46.026Z,32.40
2018-05-11T06:51:13.619Z,36.50
2018-05-11T06:53:41.235Z,42.85
2018-05-11T06:56:08.815Z,46.28
2018-05-11T06:58:36.477Z,35.35
2018-05-11T07:01:04.045Z,50.33
2018-05-11T07:03:31.647Z,27.55
2018-05-11T07:05:59.249Z,32.15
2018-05-11T07:08:26.860Z,33.80
2018-05-11T07:10:55.234Z,29.20
2018-05-11T07:13:23.633Z,34.53
2018-05-11T07:15:51.257Z,28.55
2018-05-11T07:18:20.350Z,36.15
2018-05-11T07:20:47.970Z,28.80
2018-05-11T07:23:15.624Z,31.17
2018-05-11T07:25:43.327Z,24.77
2018-05-11T07:28:10.894Z,23.02
2018-05-11T07:30:39.340Z,56.42
2018-05-11T07:33:06.986Z,22.23
2018-05-11T07:35:34.587Z,37.00
2018-05-11T07:38:02.218Z,28.42
2018-05-11T07:40:29.851Z,36.67
2018-05-11T07:42:57.504Z,29.77
2018-05-11T07:45:25.962Z,49.03
2018-05-11T07:47:53.597Z,26.90
2018-05-11T07:50:21.231Z,22.55
2018-05-11T07:52:50.121Z,27.42
2018-05-11T07:55:17.897Z,28.25
2018-05-11T07:57:45.539Z,33.65
2018-05-11T08:00:13.213Z,27.60
2018-05-11T08:02:40.863Z,44.30
2018-05-11T08:05:08.480Z,29.40
2018-05-11T08:07:36.199Z,22.23
2018-05-11T08:10:03.797Z,26.27
2018-05-11T08:12:31.428Z,22.60
2018-05-11T08:14:59.004Z,26.40
2018-05-11T08:17:26.612Z,26.75
2018-05-11T08:19:55.003Z,25.45
2018-05-11T08:22:22.669Z,27.60
2018-05-11T08:24:50.257Z,24.15
2018-05-11T08:27:17.905Z,34.78
2018-05-11T08:29:45.524Z,27.67
2018-05-11T08:32:13.889Z,24.15
2018-05-11T08:34:41.463Z,21.37
2018-05-11T08:37:09.128Z,19.17
2018-05-11T08:39:37.473Z,22.75
2018-05-11T08:42:05.098Z,24.05
2018-05-11T08:44:32.725Z,27.73
2018-05-11T08:47:00.312Z,27.48
2018-05-11T08:49:27.882Z,27.75
2018-05-11T08:51:55.549Z,27.02
2018-05-11T08:54:23.238Z,22.77
2018-05-11T08:56:50.827Z,25.52
2018-05-11T08:59:18.560Z,27.02
2018-05-11T09:01:46.160Z,21.48
2018-05-11T09:04:14.525Z,24.35
2018-05-11T09:06:42.134Z,23.05
2018-05-11T09:09:09.714Z,20.25
2018-05-11T09:11:37.297Z,21.60
2018-05-11T09:14:05.673Z,46.25
2018-05-11T09:16:33.279Z,24.05
2018-05-11T09:19:00.911Z,28.98
2018-05-11T09:21:28.532Z,27.13
2018-05-11T09:23:56.182Z,24.92
2018-05-11T09:26:23.775Z,21.83
2018-05-11T09:28:51.398Z,29.85
2018-05-11T09:31:19.253Z,25.62
2018-05-11T09:33:46.895Z,27.90
2018-05-11T09:36:15.327Z,25.15
2018-05-11T09:38:44.088Z,21.02
2018-05-11T09:41:11.718Z,22.85
2018-05-11T09:43:40.142Z,16.90
2018-05-11T09:46:08.408Z,24.60
2018-05-11T09:48:36.045Z,22.55
2018-05-11T09:51:03.676Z,29.73
2018-05-11T09:53:31.293Z,15.20
2018-05-11T09:55:58.888Z,18.98
2018-05-11T09:58:26.539Z,15.30
2018-05-11T10:00:54.310Z,13.93
2018-05-11T10:03:22.693Z,18.15
2018-05-11T10:05:50.351Z,25.57
2018-05-11T10:08:17.948Z,16.23
2018-05-11T10:10:45.578Z,18.13
2018-05-11T10:13:13.349Z,19.57
2018-05-11T10:15:41.105Z,32.93
2018-05-11T10:18:08.821Z,15.50
2018-05-11T10:20:36.438Z,17.43
2018-05-11T10:23:04.110Z,12.73
2018-05-11T10:25:31.725Z,20.57
2018-05-11T10:27:59.302Z,13.93
2018-05-11T10:33:01.620Z,19.30
2018-05-11T10:35:29.437Z,17.10
2018-05-11T10:37:57.070Z,16.73
2018-05-11T10:40:24.668Z,21.30
2018-05-11T10:42:52.228Z,17.83
2018-05-11T10:45:19.877Z,20.00
2018-05-11T10:47:47.461Z,16.67
2018-05-11T10:50:15.109Z,12.80
2018-05-11T10:52:42.717Z,16.70
2018-05-11T10:55:10.331Z,13.70
2018-05-11T10:57:37.999Z,16.80
2018-05-11T11:00:05.688Z,14.20
2018-05-11T11:02:33.386Z,12.00
2018-05-11T11:05:00.979Z,31.03
2018-05-11T11:07:28.651Z,12.47
2018-05-11T11:09:56.256Z,14.53
2018-05-11T11:12:24.684Z,13.63
2018-05-11T11:14:52.350Z,20.60
2018-05-11T11:17:19.961Z,24.27
2018-05-11T11:19:47.685Z,22.13
2018-05-11T11:22:15.309Z,14.97
2018-05-11T11:24:42.951Z,14.83
2018-05-11T11:27:11.312Z,11.57
2018-05-11T11:29:38.949Z,22.60
2018-05-11T11:32:06.576Z,21.40
2018-05-11T11:34:34.251Z,15.17
2018-05-11T11:37:01.867Z,20.47
2018-05-11T11:39:29.466Z,14.53
2018-05-11T11:41:57.097Z,18.83
2018-05-11T11:44:25.453Z,13.87
2018-05-11T11:46:53.070Z,17.83
2018-05-11T11:49:20.698Z,17.40
2018-05-11T11:51:48.309Z,17.40
2018-05-11T11:54:15.936Z,14.73
2018-05-11T11:56:43.549Z,15.40
2018-05-11T11:59:12.262Z,16.20
2018-05-11T12:01:39.928Z,14.17
2018-05-11T12:04:08.306Z,18.50
2018-05-11T12:06:36.688Z,20.47
2018-05-11T12:09:04.506Z,25.07
2018-05-11T12:11:32.044Z,17.33
2018-05-11T12:13:59.676Z,20.40
2018-05-11T12:16:28.034Z,22.13
2018-05-11T12:18:55.675Z,18.17
2018-05-11T12:21:23.363Z,18.57
2018-05-11T12:23:50.991Z,25.20
2018-05-11T12:26:18.724Z,23.73
2018-05-11T12:28:46.331Z,18.50
2018-05-11T12:31:13.961Z,31.23
2018-05-11T12:33:41.676Z,22.90
2018-05-11T12:36:09.276Z,18.93
2018-05-11T12:38:36.923Z,20.27
2018-05-11T12:41:05.298Z,14.67
2018-05-11T12:43:33.710Z,23.33
2018-05-11T12:46:01.340Z,19.43
2018-05-11T12:48:29.088Z,25.83
2018-05-11T12:50:56.673Z,23.43
2018-05-11T12:53:24.456Z,18.80
2018-05-11T12:55:53.431Z,16.80
2018-05-11T12:58:21.867Z,20.13
2018-05-11T13:00:49.475Z,18.13
2018-05-11T13:03:17.827Z,14.90
2018-05-11T13:05:45.441Z,14.13
2018-05-11T13:08:13.056Z,13.40
2018-05-11T13:10:41.430Z,15.30
2018-05-11T13:13:09.809Z,19.13
2018-05-11T13:15:38.319Z,14.40
2018-05-11T13:18:06.965Z,15.83
2018-05-11T13:20:34.602Z,16.73
2018-05-11T13:23:02.224Z,19.10
2018-05-11T13:25:29.841Z,12.90
2018-05-11T13:27:57.438Z,12.20
2018-05-11T13:30:25.116Z,12.20
2018-05-11T13:32:52.735Z,12.47
2018-05-11T13:35:20.370Z,13.47
2018-05-11T13:37:48.799Z,10.33
2018-05-11T13:40:24.432Z,12.77
2018-05-11T13:42:52.025Z,16.20
2018-05-11T13:45:19.668Z,13.83
2018-05-11T13:47:48.070Z,10.57
2018-05-11T13:50:15.685Z,7.63
2018-05-11T13:52:43.392Z,10.23
2018-05-11T13:55:11.041Z,9.60
2018-05-11T13:57:38.682Z,11.20
2018-05-11T14:00:07.117Z,11.17
2018-05-11T14:02:34.709Z,9.13
2018-05-11T14:05:02.291Z,10.83
2018-05-11T14:07:35.438Z,15.53
2018-05-11T14:10:03.062Z,11.27
2018-05-11T14:12:30.688Z,10.03
2018-05-11T14:14:58.346Z,15.37
2018-05-11T14:17:25.901Z,9.10
2018-05-11T14:19:53.515Z,9.07
2018-05-11T14:22:21.148Z,7.03
2018-05-11T14:24:48.775Z,12.17
2018-05-11T14:27:16.450Z,17.00
2018-05-11T14:29:44.092Z,8.27
2018-05-11T14:32:11.735Z,8.97
2018-05-11T14:34:39.344Z,12.50
2018-05-11T14:37:06.920Z,9.93
2018-05-11T14:39:34.557Z,10.90
2018-05-11T14:42:02.167Z,9.23
2018-05-11T14:44:29.775Z,8.53
2018-05-11T14:46:57.542Z,8.60
2018-05-11T14:49:25.135Z,8.10
2018-05-11T14:51:53.461Z,7.60
2018-05-11T14:54:21.094Z,7.13
2018-05-11T14:56:48.866Z,7.43
2018-05-11T14:59:16.508Z,7.97
2018-05-11T15:01:44.092Z,7.90
2018-05-11T15:04:11.830Z,14.10
2018-05-11T15:06:39.468Z,8.10
2018-05-11T15:09:07.073Z,10.33
2018-05-11T15:11:34.705Z,10.80
2018-05-11T15:14:02.360Z,10.20
2018-05-11T15:16:30.729Z,6.97
2018-05-11T15:18:58.453Z,6.30
2018-05-11T15:21:26.056Z,5.67
2018-05-11T15:23:53.711Z,13.07
2018-05-11T15:26:27.106Z,7.27
2018-05-11T15:28:54.723Z,5.77
2018-05-11T15:31:22.383Z,6.13
2018-05-11T15:33:50.067Z,7.50
2018-05-11T15:36:17.699Z,9.67
2018-05-11T15:38:45.365Z,4.73
2018-05-11T15:41:12.988Z,4.60
2018-05-11T15:43:40.665Z,5.13
2018-05-11T15:46:08.284Z,7.27
2018-05-11T15:48:35.923Z,4.30
2018-05-11T15:51:03.551Z,3.30
2018-05-11T15:53:31.376Z,4.23
2018-05-11T15:56:01.323Z,6.00
2018-05-11T15:58:30.898Z,3.53
2018-05-11T16:00:59.270Z,5.80
2018-05-11T16:03:27.081Z,6.30
2018-05-11T16:05:55.742Z,2.87
2018-05-11T16:08:23.564Z,4.13
2018-05-11T16:10:51.153Z,4.47
2018-05-11T16:13:18.787Z,3.60
2018-05-11T16:15:47.025Z,3.70
2018-05-11T16:18:15.382Z,4.20
2018-05-11T16:20:43.046Z,4.27
2018-05-11T16:23:10.702Z,3.20
2018-05-11T16:25:38.365Z,7.93
2018-05-11T16:28:05.965Z,4.87
2018-05-11T16:30:34.407Z,1.53
2018-05-11T16:33:02.072Z,4.27
2018-05-11T16:35:30.496Z,6.97
2018-05-11T16:37:58.118Z,3.80
2018-05-11T16:40:25.823Z,5.50
2018-05-11T16:42:53.430Z,5.00
2018-05-11T16:45:21.040Z,6.03
2018-05-11T16:47:48.705Z,4.87
2018-05-11T16:50:16.316Z,4.20
2018-05-11T16:52:43.951Z,5.77
2018-05-11T16:55:11.881Z,27.87
2018-05-11T16:57:39.551Z,5.03
2018-05-11T17:00:07.140Z,6.03
2018-05-11T17:02:34.739Z,5.93
2018-05-11T17:05:03.072Z,6.60
2018-05-11T17:07:30.697Z,4.07
2018-05-11T17:09:59.135Z,8.03
2018-05-11T17:12:27.039Z,9.20
2018-05-11T17:14:55.420Z,4.37
2018-05-11T17:17:23.022Z,7.43
2018-05-11T17:19:50.605Z,5.10
2018-05-11T17:22:18.195Z,6.53
2018-05-11T17:24:46.617Z,4.47
2018-05-11T17:27:14.251Z,3.57
2018-05-11T17:29:42.624Z,5.20
2018-05-11T17:32:10.993Z,4.20
2018-05-11T17:34:38.850Z,4.37
2018-05-11T17:37:06.514Z,5.50
2018-05-11T17:39:34.107Z,4.97
2018-05-11T17:42:01.900Z,9.73
2018-05-11T17:44:29.587Z,3.80
2018-05-11T17:46:57.888Z,4.00
2018-05-11T17:49:26.251Z,3.60
2018-05-11T17:51:53.856Z,3.87
2018-05-11T17:54:21.644Z,3.87
2018-05-11T17:56:49.285Z,7.40
2018-05-11T17:59:16.997Z,4.63
2018-05-11T18:01:44.599Z,7.83
2018-05-11T18:04:12.157Z,4.07
2018-05-11T18:06:39.985Z,4.53
2018-05-11T18:09:07.804Z,5.13
2018-05-11T18:11:36.172Z,5.13
2018-05-11T18:14:04.016Z,3.03
2018-05-11T18:16:33.194Z,4.10
2018-05-11T18:19:00.992Z,5.60
2018-05-11T18:21:29.293Z,3.53
2018-05-11T18:23:56.978Z,11.10
2018-05-11T18:26:24.626Z,52.30
2018-05-11T18:28:52.403Z,4.60
2018-05-11T18:31:20.037Z,9.13
2018-05-11T18:33:47.681Z,5.00
2018-05-11T18:36:15.303Z,6.77
2018-05-11T18:38:42.907Z,9.33
2018-05-11T18:41:10.587Z,6.80
2018-05-11T18:43:38.183Z,7.97
2018-05-11T18:46:05.774Z,5.47
2018-05-11T18:48:33.414Z,6.00
2018-05-11T18:51:01.057Z,9.17
2018-05-11T18:53:28.880Z,7.30
2018-05-11T18:55:56.460Z,10.93
2018-05-11T18:58:24.063Z,7.13
2018-05-11T19:00:52.479Z,8.33
2018-05-11T19:03:20.057Z,9.70
2018-05-11T19:05:47.637Z,7.53
2018-05-11T19:08:15.307Z,5.60
2018-05-11T19:10:42.915Z,6.30
2018-05-11T19:13:10.546Z,4.80
2018-05-11T19:15:38.178Z,4.87
2018-05-11T19:18:05.811Z,5.67
2018-05-11T19:20:33.430Z,6.20
2018-05-11T19:23:01.060Z,10.33
2018-05-11T19:25:28.705Z,5.37
2018-05-11T19:27:56.351Z,4.10
2018-05-11T19:30:23.948Z,13.07
2018-05-11T19:32:52.518Z,10.10
2018-05-11T19:35:20.192Z,6.90
2018-05-11T19:37:48.639Z,10.00
2018-05-11T19:40:16.337Z,14.00
2018-05-11T19:42:43.928Z,6.80
2018-05-11T19:45:11.558Z,11.10
2018-05-11T19:47:39.174Z,6.97
2018-05-11T19:50:06.792Z,10.60
2018-05-11T19:52:34.368Z,12.70
2018-05-11T19:55:02.057Z,8.63
2018-05-11T19:57:29.670Z,6.20
2018-05-11T19:59:57.256Z,9.17
2018-05-11T20:02:25.043Z,6.90
2018-05-11T20:04:54.197Z,8.93
2018-05-11T20:07:21.843Z,6.90
2018-05-11T20:09:49.402Z,8.17
2018-05-11T20:12:16.998Z,12.70
2018-05-11T20:14:44.603Z,10.60
2018-05-11T20:17:12.201Z,11.17
2018-05-11T20:19:39.890Z,8.47
2018-05-11T20:22:07.453Z,22.87
2018-05-11T20:24:35.041Z,10.10
2018-05-11T20:27:02.695Z,8.47
2018-05-11T20:29:30.280Z,16.47
2018-05-11T20:31:57.876Z,9.93
2018-05-11T20:34:25.505Z,9.90
2018-05-11T20:36:53.137Z,10.10
2018-05-11T20:39:21.519Z,14.00
2018-05-11T20:41:49.124Z,11.23
2018-05-11T20:44:16.761Z,7.87
2018-05-11T20:46:44.365Z,11.63
2018-05-11T20:49:11.999Z,12.90
2018-05-11T20:51:39.640Z,10.90
2018-05-11T20:54:07.231Z,12.47
2018-05-11T20:56:34.989Z,8.67
2018-05-11T20:59:02.581Z,9.73
2018-05-11T21:01:30.302Z,10.43
2018-05-11T21:03:58.169Z,14.40
2018-05-11T21:06:25.755Z,14.80
2018-05-11T21:08:54.354Z,14.47
2018-05-11T21:11:21.980Z,10.60
2018-05-11T21:13:49.663Z,10.40
2018-05-11T21:16:17.267Z,8.97
2018-05-11T21:18:44.883Z,12.70
2018-05-11T21:21:12.490Z,11.30
2018-05-11T21:23:40.079Z,10.67
2018-05-11T21:26:07.806Z,9.47
2018-05-11T21:28:35.347Z,13.40
2018-05-11T21:31:02.941Z,12.00
2018-05-11T21:33:30.541Z,10.50
2018-05-11T21:35:58.132Z,10.07
2018-05-11T21:38:25.771Z,9.20
2018-05-11T21:40:53.397Z,14.03
2018-05-11T21:43:20.945Z,10.23
2018-05-11T21:45:48.551Z,12.23
2018-05-11T21:48:16.128Z,12.83
2018-05-11T21:50:43.739Z,9.40
2018-05-11T21:53:11.351Z,9.80
2018-05-11T21:55:38.966Z,13.00
2018-05-11T21:58:06.622Z,7.93
2018-05-11T22:00:34.192Z,10.03
2018-05-11T22:03:01.843Z,10.47
2018-05-11T22:05:29.457Z,13.60
2018-05-11T22:07:57.082Z,8.13
2018-05-11T22:10:24.748Z,9.83
2018-05-11T22:12:52.342Z,14.13
2018-05-11T22:15:19.958Z,12.87
2018-05-11T22:17:47.559Z,10.93
2018-05-11T22:20:15.185Z,11.60
2018-05-11T22:22:42.802Z,9.77
2018-05-11T22:25:21.711Z,10.47
2018-05-11T22:27:49.321Z,11.07
2018-05-11T22:30:16.929Z,12.30
2018-05-11T22:32:44.550Z,11.43
2018-05-11T22:35:12.176Z,12.10
2018-05-11T22:37:40.662Z,9.53
2018-05-11T22:40:09.480Z,12.03
2018-05-11T22:42:37.116Z,15.10
2018-05-11T22:45:05.231Z,11.98
2018-05-11T22:47:32.920Z,11.77
2018-05-11T22:50:00.546Z,8.63
2018-05-11T22:52:28.146Z,10.80
2018-05-11T22:54:55.768Z,9.70
2018-05-11T22:57:23.354Z,10.93
2018-05-11T22:59:50.983Z,13.55
2018-05-11T23:02:18.596Z,11.95
2018-05-11T23:04:46.152Z,10.37
2018-05-11T23:07:14.551Z,9.68
2018-05-11T23:09:42.920Z,11.93
2018-05-11T23:12:10.644Z,10.00
2018-05-11T23:14:39.046Z,8.97
2018-05-11T23:17:06.652Z,14.20
2018-05-11T23:19:34.261Z,8.03
2018-05-11T23:22:01.821Z,10.90
2018-05-11T23:24:29.473Z,11.70
2018-05-11T23:26:57.076Z,16.30
2018-05-11T23:29:24.758Z,11.35
2018-05-11T23:31:52.406Z,12.80
2018-05-11T23:34:19.999Z,11.80
2018-05-11T23:36:47.627Z,11.45
2018-05-11T23:39:15.244Z,10.07
2018-05-11T23:41:42.865Z,11.77
2018-05-11T23:44:10.470Z,10.70
2018-05-11T23:46:38.083Z,10.17
2018-05-11T23:49:05.729Z,14.87
2018-05-11T23:51:34.115Z,10.37
2018-05-11T23:54:02.533Z,9.47
2018-05-11T23:56:30.181Z,9.13
2018-05-11T23:58:57.790Z,10.37
